Jerseyville, IL

6:55 PM CDT on September 23, 2014 (GMT -0500)
Lambert-Saint Louis International | Change Station
CLOSE
Current Station
Airport
Location: St. Louis,
Elevation: 564 ft
Nearby Weather Stations

Elev 564 ft 38.75 °N, 90.37 °W | Updated 4 minutes ago

Partly Cloudy
Partly Cloudy
69 °F
Feels Like 69 °F
N
6
Wind Variable Wind from East

Today
High -- | Low -- °F
--% Chance of Precip.
Yesterday
High -- | Low -- °F
Precip. -- in
6:49 AM 6:56 PM
Waning Crescent, 0% visible
Pressure 30.23 in
Visibility 10.0 miles
Clouds Scattered Clouds 15000 ft
Mostly Cloudy 25000 ft
Dew Point 49 °F
Humidity 49%
Rainfall 0.00 in
Snow Depth Not available.
UV 0 out of 12
Pollen 5.50 out of 12
Air Quality Not available.
Flu Activity Not available.
METAR KSTL 232351Z 10005KT 10SM SCT150 BKN250 21/09 A3023 RMK AO2 SLP235 T02060094 10239 20206 55004

More Conditions Fewer Conditions

Pressure 30.23 in
Visibility 10.0 miles
Clouds Scattered Clouds 15000 ft
Mostly Cloudy 25000 ft
Dew Point 49 °F
Humidity 49%
Rainfall 0.00 in
Snow Depth Not available.
UV 0 out of 12
Pollen 5.50 out of 12
Air Quality Not available.
Flu Activity Not available.
METAR KSTL 232351Z 10005KT 10SM SCT150 BKN250 21/09 A3023 RMK AO2 SLP235 T02060094 10239 20206 55004

More Conditions Fewer Conditions

10-Day Weather Forecast

Almanac

Astronomy

Sep. 23, 2014 Rise Set
Actual Time 6:49 AM CDT 6:56 PM CDT
Civil Twilight 6:23 AM CDT 7:23 PM CDT
Nautical Twilight 5:52 AM CDT 7:54 PM CDT
Astronomical Twilight 5:20 AM CDT 8:26 PM CDT
Moon 6:14 AM CDT 6:35 PM CDT
Length of Visible Light 13h 00m
Length of Day
12h 06m
Tomorrow will be 2m 32s shorter.
Waning Crescent, 0% of the Moon is Illuminated
Today
Waning Crescent
Sep 24
New
Oct 1
First Quarter
Oct 8
Full
Oct 15
Last Quarter

Today's Extremes

State Highs State Lows

Community

WunderPhotos

Upload Photos

1,755,821 photos uploaded!

WunderBlogs® & News

Nearby

Snow Depth

Station Depth Elevation
No new snow has been reported.

Earthquake Activity

City Distance Mag. Time & Date
No recent earthquake activity has been reported nearby.
Minimum magnitude displayed is 2.5.

Coastal Water Temperatures

Place Temperature
No Stations Reporting

Nearby Weather Stations